createdAt,value
2017-07-28T00:00:11.804Z,100459
2017-07-28T00:02:39.950Z,100458
2017-07-28T00:05:08.134Z,100462
2017-07-28T00:07:36.306Z,100458
2017-07-28T00:10:04.473Z,100455
2017-07-28T00:12:32.657Z,100455
2017-07-28T00:15:00.807Z,100466
2017-07-28T00:17:28.982Z,100466
2017-07-28T00:19:57.929Z,100476
2017-07-28T00:22:26.106Z,100478
2017-07-28T00:24:54.273Z,100476
2017-07-28T00:27:22.450Z,100474
2017-07-28T00:29:50.599Z,100483
2017-07-28T00:32:18.768Z,100486
2017-07-28T00:34:46.946Z,100479
2017-07-28T00:37:15.118Z,100479
2017-07-28T00:39:43.266Z,100473
2017-07-28T00:42:12.213Z,100476
2017-07-28T00:44:40.370Z,100467
2017-07-28T00:47:08.521Z,100469
2017-07-28T00:49:36.699Z,100469
2017-07-28T00:52:04.871Z,100469
2017-07-28T00:54:33.018Z,100460
2017-07-28T00:57:01.195Z,100461
2017-07-28T00:59:30.110Z,100463
2017-07-28T01:01:58.280Z,100465
2017-07-28T01:04:27.226Z,100464
2017-07-28T01:06:55.369Z,100459
2017-07-28T01:09:23.544Z,100460
2017-07-28T01:11:51.732Z,100454
2017-07-28T01:14:19.904Z,100456
2017-07-28T01:16:48.062Z,100458
2017-07-28T01:19:16.257Z,100458
2017-07-28T01:21:44.428Z,100467
2017-07-28T01:24:12.582Z,100478
2017-07-28T01:26:40.778Z,100476
2017-07-28T01:29:08.944Z,100474
2017-07-28T01:31:37.098Z,100471
2017-07-28T01:34:05.297Z,100476
2017-07-28T01:36:33.468Z,100475
2017-07-28T01:39:01.631Z,100488
2017-07-28T01:41:29.807Z,100485
2017-07-28T01:43:57.972Z,100490
2017-07-28T01:46:26.127Z,100481
2017-07-28T01:48:55.073Z,100480
2017-07-28T01:51:23.240Z,100488
2017-07-28T01:53:51.389Z,100473
2017-07-28T01:56:19.585Z,100487
2017-07-28T01:58:47.749Z,100483
2017-07-28T02:01:15.924Z,100481
2017-07-28T02:03:44.124Z,100482
2017-07-28T02:06:12.274Z,100486
2017-07-28T02:08:40.429Z,100496
2017-07-28T02:11:08.614Z,100499
2017-07-28T02:13:36.781Z,100492
2017-07-28T02:16:04.937Z,100490
2017-07-28T02:18:33.900Z,100501
2017-07-28T02:21:02.061Z,100504
2017-07-28T02:23:30.222Z,100501
2017-07-28T02:25:58.402Z,100491
2017-07-28T02:28:26.551Z,100490
2017-07-28T02:30:54.698Z,100498
2017-07-28T02:33:23.680Z,100490
2017-07-28T02:35:51.833Z,100500
2017-07-28T02:38:19.999Z,100506
2017-07-28T02:40:48.195Z,100501
2017-07-28T02:43:16.351Z,100506
2017-07-28T02:45:44.521Z,100507
2017-07-28T02:48:12.716Z,100509
2017-07-28T02:50:40.879Z,100504
2017-07-28T02:53:09.063Z,100501
2017-07-28T02:55:37.261Z,100511
2017-07-28T02:58:06.182Z,100502
2017-07-28T03:00:34.346Z,100510
2017-07-28T03:03:02.537Z,100501
2017-07-28T03:05:30.694Z,100496
2017-07-28T03:07:59.636Z,100497
2017-07-28T03:10:27.806Z,100494
2017-07-28T03:12:55.953Z,100488
2017-07-28T03:15:24.113Z,100480
2017-07-28T03:17:52.319Z,100487
2017-07-28T03:20:20.469Z,100481
2017-07-28T03:22:48.622Z,100477
2017-07-28T03:25:17.576Z,100476
2017-07-28T03:27:45.740Z,100479
2017-07-28T03:30:13.888Z,100484
2017-07-28T03:32:42.075Z,100485
2017-07-28T03:35:10.244Z,100482
2017-07-28T03:37:38.412Z,100488
2017-07-28T03:40:06.604Z,100496
2017-07-28T03:42:34.762Z,100494
2017-07-28T03:45:02.937Z,100492
2017-07-28T03:47:31.573Z,100498
2017-07-28T03:49:59.745Z,100497
2017-07-28T03:52:27.920Z,100508
2017-07-28T03:54:56.129Z,100498
2017-07-28T03:57:25.068Z,100492
2017-07-28T03:59:53.234Z,100505
2017-07-28T04:02:21.433Z,100498
2017-07-28T04:04:49.593Z,100495
2017-07-28T04:07:17.777Z,100492
2017-07-28T04:09:45.971Z,100488
2017-07-28T04:12:14.134Z,100499
2017-07-28T04:14:42.293Z,100494
2017-07-28T04:17:10.878Z,100498
2017-07-28T04:19:39.038Z,100491
2017-07-28T04:22:07.193Z,100487
2017-07-28T04:24:35.403Z,100495
2017-07-28T04:27:03.590Z,100486
2017-07-28T04:29:31.761Z,100499
2017-07-28T04:31:59.944Z,100482
2017-07-28T04:34:28.107Z,100495
2017-07-28T04:36:56.255Z,100487
2017-07-28T04:39:24.452Z,100497
2017-07-28T04:41:52.629Z,100504
2017-07-28T04:44:20.804Z,100500
2017-07-28T04:46:48.990Z,100508
2017-07-28T04:49:17.154Z,100508
2017-07-28T04:51:45.309Z,100510
2017-07-28T04:54:13.501Z,100502
2017-07-28T04:56:41.657Z,100513
2017-07-28T04:59:09.810Z,100522
2017-07-28T05:01:38.011Z,100527
2017-07-28T05:04:06.185Z,100526
2017-07-28T05:06:34.341Z,100519
2017-07-28T05:09:02.528Z,100531
2017-07-28T05:11:30.708Z,100525
2017-07-28T05:13:58.881Z,100531
2017-07-28T05:16:27.066Z,100533
2017-07-28T05:18:55.251Z,100526
2017-07-28T05:21:23.436Z,100533
2017-07-28T05:23:51.636Z,100527
2017-07-28T05:26:20.553Z,100529
2017-07-28T05:28:48.724Z,100527
2017-07-28T05:31:16.908Z,100529
2017-07-28T05:33:45.063Z,100532
2017-07-28T05:36:13.249Z,100528
2017-07-28T05:38:41.428Z,100539
2017-07-28T05:41:09.622Z,100535
2017-07-28T05:43:37.775Z,100544
2017-07-28T05:46:05.973Z,100536
2017-07-28T05:48:34.132Z,100537
2017-07-28T05:51:02.290Z,100539
2017-07-28T05:53:30.508Z,100543
2017-07-28T05:55:58.686Z,100538
2017-07-28T05:58:26.850Z,100539
2017-07-28T06:00:55.030Z,100553
2017-07-28T06:03:23.175Z,100543
2017-07-28T06:05:51.354Z,100533
2017-07-28T06:08:19.583Z,100540
2017-07-28T06:10:47.739Z,100536
2017-07-28T06:13:16.791Z,100542
2017-07-28T06:15:44.966Z,100538
2017-07-28T06:18:13.181Z,100554
2017-07-28T06:20:41.325Z,100543
2017-07-28T06:23:09.511Z,100546
2017-07-28T06:25:37.726Z,100552
2017-07-28T06:28:05.893Z,100548
2017-07-28T06:30:34.121Z,100545
2017-07-28T06:33:02.271Z,100555
2017-07-28T06:35:30.458Z,100550
2017-07-28T06:37:58.637Z,100542
2017-07-28T06:40:26.790Z,100540
2017-07-28T06:42:55.729Z,100546
2017-07-28T06:45:23.903Z,100546
2017-07-28T06:47:52.058Z,100552
2017-07-28T06:50:20.234Z,100551
2017-07-28T06:52:48.407Z,100553
2017-07-28T06:55:16.582Z,100552
2017-07-28T06:57:44.749Z,100557
2017-07-28T07:00:12.930Z,100554
2017-07-28T07:02:41.096Z,100555
2017-07-28T07:05:09.246Z,100549
2017-07-28T07:07:38.199Z,100552
2017-07-28T07:10:06.372Z,100562
2017-07-28T07:12:34.545Z,100559
2017-07-28T07:15:02.725Z,100564
2017-07-28T07:17:30.905Z,100570
2017-07-28T07:19:59.057Z,100577
2017-07-28T07:22:27.232Z,100565
2017-07-28T07:24:55.405Z,100562
2017-07-28T07:27:23.574Z,100576
2017-07-28T07:29:51.755Z,100569
2017-07-28T07:32:19.924Z,100578
2017-07-28T07:34:48.108Z,100569
2017-07-28T07:37:16.297Z,100568
2017-07-28T07:39:44.468Z,100564
2017-07-28T07:42:12.634Z,100563
2017-07-28T07:44:40.824Z,100573
2017-07-28T07:47:08.977Z,100586
2017-07-28T07:49:37.143Z,100582
2017-07-28T07:52:05.342Z,100594
2017-07-28T07:54:33.515Z,100596
2017-07-28T07:57:01.673Z,100594
2017-07-28T07:59:29.846Z,100606
2017-07-28T08:01:57.996Z,100594
2017-07-28T08:04:26.159Z,100597
2017-07-28T08:06:55.105Z,100592
2017-07-28T08:09:23.272Z,100596
2017-07-28T08:11:51.423Z,100596
2017-07-28T08:14:19.600Z,100609
2017-07-28T08:16:47.748Z,100606
2017-07-28T08:19:16.700Z,100610
2017-07-28T08:21:44.878Z,100612
2017-07-28T08:24:13.052Z,100611
2017-07-28T08:26:41.225Z,100604
2017-07-28T08:29:09.428Z,100604
2017-07-28T08:31:37.612Z,100606
2017-07-28T08:34:05.768Z,100610
2017-07-28T08:36:33.972Z,100608
2017-07-28T08:39:02.144Z,100607
2017-07-28T08:41:31.069Z,100609
2017-07-28T08:43:59.244Z,100604
2017-07-28T08:46:27.401Z,100600
2017-07-28T08:48:55.847Z,100587
2017-07-28T08:51:24.047Z,100596
2017-07-28T08:53:52.208Z,100583
2017-07-28T08:56:21.149Z,100590
2017-07-28T08:58:49.341Z,100608
2017-07-28T09:01:17.495Z,100608
2017-07-28T09:03:45.669Z,100609
2017-07-28T09:06:13.846Z,100613
2017-07-28T09:08:41.999Z,100618
2017-07-28T09:11:10.159Z,100615
2017-07-28T09:13:38.338Z,100609
2017-07-28T09:16:07.276Z,100602
2017-07-28T09:18:35.449Z,100598
2017-07-28T09:21:03.658Z,100603
2017-07-28T09:23:31.814Z,100592
2017-07-28T09:26:00.004Z,100602
2017-07-28T09:28:28.209Z,100591
2017-07-28T09:30:56.382Z,100593
2017-07-28T09:33:24.538Z,100599
2017-07-28T09:35:52.743Z,100601
2017-07-28T09:38:20.919Z,100612
2017-07-28T09:40:49.075Z,100608
2017-07-28T09:43:17.270Z,100606
2017-07-28T09:45:45.449Z,100605
2017-07-28T09:48:13.632Z,100605
2017-07-28T09:50:42.142Z,100608
2017-07-28T09:53:10.315Z,100604
2017-07-28T09:55:38.486Z,100615
2017-07-28T09:58:06.662Z,100621
2017-07-28T10:00:34.822Z,100620
2017-07-28T10:03:02.968Z,100615
2017-07-28T10:05:31.161Z,100615
2017-07-28T10:07:59.332Z,100623
2017-07-28T10:10:27.513Z,100607
2017-07-28T10:12:55.703Z,100610
2017-07-28T10:15:23.879Z,100615
2017-07-28T10:17:52.053Z,100616
2017-07-28T10:20:20.230Z,100627
2017-07-28T10:22:48.400Z,100623
2017-07-28T10:25:16.557Z,100630
2017-07-28T10:27:44.739Z,100628
2017-07-28T10:30:12.920Z,100628
2017-07-28T10:32:41.089Z,100624
2017-07-28T10:35:09.282Z,100621
2017-07-28T10:37:37.443Z,100626
2017-07-28T10:40:05.589Z,100635
2017-07-28T10:42:33.805Z,100633
2017-07-28T10:45:01.966Z,100640
2017-07-28T10:47:30.141Z,100647
2017-07-28T10:49:58.334Z,100643
2017-07-28T10:52:26.505Z,100650
2017-07-28T10:54:54.657Z,100650
2017-07-28T10:57:22.843Z,100641
2017-07-28T10:59:50.996Z,100643
2017-07-28T11:02:19.146Z,100640
2017-07-28T11:04:47.349Z,100634
2017-07-28T11:07:15.520Z,100639
2017-07-28T11:09:43.692Z,100636
2017-07-28T11:12:11.896Z,100633
2017-07-28T11:14:40.050Z,100634
2017-07-28T11:17:08.230Z,100636
2017-07-28T11:19:36.429Z,100641
2017-07-28T11:22:04.604Z,100644
2017-07-28T11:24:32.777Z,100656
2017-07-28T11:27:00.958Z,100690
2017-07-28T11:29:29.147Z,100737
2017-07-28T11:31:58.084Z,100782
2017-07-28T11:34:26.263Z,100776
2017-07-28T11:36:54.422Z,100781
2017-07-28T11:39:22.586Z,100774
2017-07-28T11:41:50.769Z,100774
2017-07-28T11:44:18.913Z,100769
2017-07-28T11:46:47.854Z,100773
2017-07-28T11:49:16.019Z,100766
2017-07-28T11:51:44.170Z,100763
2017-07-28T11:54:12.326Z,100756
2017-07-28T11:56:41.282Z,100743
2017-07-28T11:59:09.429Z,100747
2017-07-28T12:01:37.596Z,100753
2017-07-28T12:04:05.800Z,100758
2017-07-28T12:06:33.944Z,100755
2017-07-28T12:09:02.090Z,100752
2017-07-28T12:11:31.060Z,100739
2017-07-28T12:13:59.212Z,100736
2017-07-28T12:16:27.385Z,100737
2017-07-28T12:18:55.577Z,100734
2017-07-28T12:21:23.726Z,100731
2017-07-28T12:23:51.902Z,100733
2017-07-28T12:26:20.095Z,100725
2017-07-28T12:28:48.242Z,100728
2017-07-28T12:31:16.437Z,100719
2017-07-28T12:33:44.605Z,100707
2017-07-28T12:36:12.773Z,100703
2017-07-28T12:38:40.922Z,100709
2017-07-28T12:41:09.125Z,100709
2017-07-28T12:43:37.275Z,100690
2017-07-28T12:46:05.441Z,100680
2017-07-28T12:48:34.428Z,100682
2017-07-28T12:51:03.370Z,100678
2017-07-28T12:53:31.532Z,100688
2017-07-28T12:55:59.727Z,100684
2017-07-28T12:58:27.891Z,100687
2017-07-28T13:00:56.066Z,100702
2017-07-28T13:03:24.254Z,100700
2017-07-28T13:05:52.402Z,100717
2017-07-28T13:08:20.572Z,100697
2017-07-28T13:10:48.742Z,100711
2017-07-28T13:13:16.919Z,100714
2017-07-28T13:15:45.072Z,100720
2017-07-28T13:18:14.037Z,100723
2017-07-28T13:20:42.195Z,100743
2017-07-28T13:23:10.346Z,100728
2017-07-28T13:25:38.549Z,100768
2017-07-28T13:28:06.725Z,100767
2017-07-28T13:30:34.876Z,100776
2017-07-28T13:33:03.139Z,100773
2017-07-28T13:35:31.305Z,100775
2017-07-28T13:37:59.478Z,100772
2017-07-28T13:40:27.663Z,100775
2017-07-28T13:42:55.828Z,100779
2017-07-28T13:45:23.977Z,100789
2017-07-28T13:47:52.947Z,100783
2017-07-28T13:50:21.137Z,100779
2017-07-28T13:52:49.316Z,100789
2017-07-28T13:55:18.288Z,100794
2017-07-28T13:57:46.461Z,100790
2017-07-28T14:00:14.624Z,100794
2017-07-28T14:02:42.798Z,100784
2017-07-28T14:05:10.965Z,100786
2017-07-28T14:07:40.048Z,100784
2017-07-28T14:10:08.408Z,100786
2017-07-28T14:12:36.579Z,100783
2017-07-28T14:15:04.741Z,100794
2017-07-28T14:17:33.700Z,100800
2017-07-28T14:20:01.866Z,100802
2017-07-28T14:22:30.019Z,100803
2017-07-28T14:24:58.198Z,100795
2017-07-28T14:27:26.361Z,100795
2017-07-28T14:29:54.534Z,100804
2017-07-28T14:32:22.731Z,100794
2017-07-28T14:34:50.903Z,100792
2017-07-28T14:37:19.075Z,100797
2017-07-28T14:39:47.275Z,100793
2017-07-28T14:42:15.441Z,100795
2017-07-28T14:44:43.602Z,100790
2017-07-28T14:47:11.801Z,100797
2017-07-28T14:49:39.981Z,100789
2017-07-28T14:52:08.146Z,100794
2017-07-28T14:54:36.362Z,100791
2017-07-28T14:57:04.537Z,100793
2017-07-28T14:59:32.713Z,100798
2017-07-28T15:02:00.908Z,100795
2017-07-28T15:04:29.055Z,100789
2017-07-28T15:06:57.966Z,100786
2017-07-28T15:09:26.143Z,100797
2017-07-28T15:11:54.314Z,100804
2017-07-28T15:14:22.475Z,100795
2017-07-28T15:16:50.685Z,100812
2017-07-28T15:19:18.837Z,100831
2017-07-28T15:21:47.005Z,100832
2017-07-28T15:24:15.194Z,100837
2017-07-28T15:26:43.361Z,100832
2017-07-28T15:29:11.502Z,100832
2017-07-28T15:31:40.453Z,100818
2017-07-28T15:34:08.617Z,100820
2017-07-28T15:36:36.785Z,100826
2017-07-28T15:39:04.966Z,100826
2017-07-28T15:41:33.157Z,100836
2017-07-28T15:44:01.297Z,100831
2017-07-28T15:46:29.470Z,100839
2017-07-28T15:48:57.646Z,100827
2017-07-28T15:51:25.817Z,100830
2017-07-28T15:53:53.995Z,100824
2017-07-28T15:56:22.169Z,100825
2017-07-28T15:58:50.319Z,100822
2017-07-28T16:01:19.266Z,100830
2017-07-28T16:03:47.414Z,100823
2017-07-28T16:06:15.920Z,100818
2017-07-28T16:08:44.843Z,100823
2017-07-28T16:11:13.017Z,100815
2017-07-28T16:13:41.182Z,100820
2017-07-28T16:16:09.381Z,100808
2017-07-28T16:18:38.313Z,100808
2017-07-28T16:21:06.473Z,100815
2017-07-28T16:23:34.642Z,100822
2017-07-28T16:26:02.797Z,100816
2017-07-28T16:28:31.732Z,100818
2017-07-28T16:30:59.941Z,100825
2017-07-28T16:33:28.868Z,100834
2017-07-28T16:35:57.033Z,100827
2017-07-28T16:38:25.292Z,100835
2017-07-28T16:40:53.468Z,100838
2017-07-28T16:43:21.644Z,100846
2017-07-28T16:45:50.160Z,100845
2017-07-28T16:48:19.108Z,100849
2017-07-28T16:50:47.277Z,100848
2017-07-28T16:53:15.477Z,100847
2017-07-28T16:55:43.652Z,100837
2017-07-28T16:58:11.818Z,100839
2017-07-28T17:00:40.010Z,100844
2017-07-28T17:03:08.154Z,100843
2017-07-28T17:05:36.325Z,100843
2017-07-28T17:08:04.506Z,100844
2017-07-28T17:10:32.690Z,100837
2017-07-28T17:13:00.840Z,100843
2017-07-28T17:15:29.039Z,100846
2017-07-28T17:17:57.215Z,100856
2017-07-28T17:20:25.372Z,100857
2017-07-28T17:22:53.568Z,100853
2017-07-28T17:25:21.728Z,100855
2017-07-28T17:27:49.894Z,100848
2017-07-28T17:30:18.105Z,100856
2017-07-28T17:32:46.254Z,100832
2017-07-28T17:35:14.424Z,100847
2017-07-28T17:37:42.624Z,100866
2017-07-28T17:40:10.770Z,100846
2017-07-28T17:42:38.922Z,100852
2017-07-28T17:45:07.097Z,100862
2017-07-28T17:47:36.029Z,100863
2017-07-28T17:50:04.197Z,100880
2017-07-28T17:52:32.375Z,100882
2017-07-28T17:55:00.529Z,100891
2017-07-28T17:57:28.686Z,100882
2017-07-28T17:59:57.629Z,100887
2017-07-28T18:02:25.792Z,100895
2017-07-28T18:04:53.938Z,100892
2017-07-28T18:07:22.139Z,100895
2017-07-28T18:09:50.287Z,100903
2017-07-28T18:12:18.437Z,100900
2017-07-28T18:14:47.400Z,100901
2017-07-28T18:17:15.579Z,100909
2017-07-28T18:19:43.754Z,100906
2017-07-28T18:22:11.930Z,100917
2017-07-28T18:24:40.087Z,100914
2017-07-28T18:27:08.239Z,100924
2017-07-28T18:29:36.418Z,100925
2017-07-28T18:32:04.575Z,100926
2017-07-28T18:34:32.728Z,100930
2017-07-28T18:37:01.675Z,100931
2017-07-28T18:39:29.844Z,100932
2017-07-28T18:41:57.996Z,100928
2017-07-28T18:44:26.168Z,100937
2017-07-28T18:46:54.336Z,100927
2017-07-28T18:49:22.492Z,100930
2017-07-28T18:51:50.702Z,100934
2017-07-28T18:54:18.870Z,100938
2017-07-28T18:56:47.044Z,100931
2017-07-28T18:59:15.245Z,100948
2017-07-28T19:01:43.418Z,100944
2017-07-28T19:04:11.574Z,100951
2017-07-28T19:06:39.773Z,100948
2017-07-28T19:09:07.935Z,100954
2017-07-28T19:11:36.114Z,100959
2017-07-28T19:14:04.301Z,100967
2017-07-28T19:16:32.478Z,100963
2017-07-28T19:19:00.635Z,100965
2017-07-28T19:21:28.868Z,100957
2017-07-28T19:23:57.112Z,100967
2017-07-28T19:26:25.352Z,100967
2017-07-28T19:28:53.558Z,100968
2017-07-28T19:31:21.714Z,100976
2017-07-28T19:33:49.881Z,100981
2017-07-28T19:36:18.074Z,100983
2017-07-28T19:38:46.223Z,100985
2017-07-28T19:41:14.396Z,100981
2017-07-28T19:43:42.570Z,100994
2017-07-28T19:46:10.732Z,100989
2017-07-28T19:48:38.902Z,100983
2017-07-28T19:51:07.111Z,100983
2017-07-28T19:53:35.282Z,100995
2017-07-28T19:56:03.430Z,100988
2017-07-28T19:58:31.610Z,100985
2017-07-28T20:00:59.781Z,100981
2017-07-28T20:03:27.952Z,100989
2017-07-28T20:05:56.192Z,100985
2017-07-28T20:08:24.358Z,100990
2017-07-28T20:10:52.540Z,100986
2017-07-28T20:13:20.749Z,100992
2017-07-28T20:15:48.914Z,100991
2017-07-28T20:18:17.845Z,101001
2017-07-28T20:20:46.013Z,101001
2017-07-28T20:23:14.172Z,101001
2017-07-28T20:25:42.326Z,100998
2017-07-28T20:28:10.503Z,101004
2017-07-28T20:30:39.423Z,101013
2017-07-28T20:33:07.573Z,101008
2017-07-28T20:35:36.518Z,101015
2017-07-28T20:38:04.667Z,100999
2017-07-28T20:40:32.837Z,101014
2017-07-28T20:43:01.011Z,101007
2017-07-28T20:45:29.178Z,101003
2017-07-28T20:47:57.343Z,100999
2017-07-28T20:50:25.531Z,100994
2017-07-28T20:52:53.701Z,101003
2017-07-28T20:55:21.871Z,100997
2017-07-28T20:57:50.073Z,101001
2017-07-28T21:00:18.246Z,101006
2017-07-28T21:02:46.393Z,101009
2017-07-28T21:05:14.578Z,101016
2017-07-28T21:07:42.753Z,101010
2017-07-28T21:10:10.919Z,101009
2017-07-28T21:12:39.120Z,101009
2017-07-28T21:15:07.280Z,101016
2017-07-28T21:17:35.429Z,101020
2017-07-28T21:20:04.384Z,101018
2017-07-28T21:22:32.548Z,101007
2017-07-28T21:25:00.729Z,101008
2017-07-28T21:27:28.925Z,101013
2017-07-28T21:29:57.170Z,100998
2017-07-28T21:32:25.315Z,100989
2017-07-28T21:34:53.505Z,100998
2017-07-28T21:37:21.654Z,101000
2017-07-28T21:39:50.598Z,101004
2017-07-28T21:42:18.774Z,100996
2017-07-28T21:44:46.929Z,100987
2017-07-28T21:47:15.107Z,100984
2017-07-28T21:49:43.285Z,100986
2017-07-28T21:52:11.447Z,100983
2017-07-28T21:54:39.610Z,100997
2017-07-28T21:57:07.793Z,100994
2017-07-28T21:59:35.953Z,101005
2017-07-28T22:02:04.125Z,100995
2017-07-28T22:04:32.304Z,100994
2017-07-28T22:07:00.459Z,100993
2017-07-28T22:09:29.394Z,101003
2017-07-28T22:11:57.591Z,101007
2017-07-28T22:14:25.747Z,101004
2017-07-28T22:16:53.898Z,101011
2017-07-28T22:19:22.098Z,101002
2017-07-28T22:21:50.277Z,101001
2017-07-28T22:24:18.429Z,100998
2017-07-28T22:26:46.601Z,100986
2017-07-28T22:29:14.780Z,100986
2017-07-28T22:31:42.956Z,100981
2017-07-28T22:34:11.157Z,100995
2017-07-28T22:36:39.313Z,100994
2017-07-28T22:39:07.481Z,100999
2017-07-28T22:41:35.662Z,100991
2017-07-28T22:44:03.823Z,100998
2017-07-28T22:46:31.984Z,100985
2017-07-28T22:49:00.176Z,100979
2017-07-28T22:51:28.337Z,100985
2017-07-28T22:53:56.486Z,100983
2017-07-28T22:56:25.454Z,100976
2017-07-28T22:58:53.605Z,100971
2017-07-28T23:01:21.771Z,100962
2017-07-28T23:03:49.988Z,100969
2017-07-28T23:06:18.161Z,100971
2017-07-28T23:08:46.342Z,100972
2017-07-28T23:11:14.526Z,100976
2017-07-28T23:13:43.464Z,100969
2017-07-28T23:16:11.633Z,100973
2017-07-28T23:18:39.805Z,100966
2017-07-28T23:21:07.957Z,100979
2017-07-28T23:23:36.125Z,100985
2017-07-28T23:26:05.095Z,100985
2017-07-28T23:28:33.248Z,100993
2017-07-28T23:31:01.406Z,100993
2017-07-28T23:33:29.594Z,100995
2017-07-28T23:35:57.763Z,100974
2017-07-28T23:38:25.914Z,100980
2017-07-28T23:40:54.113Z,100983
2017-07-28T23:43:22.296Z,100980
2017-07-28T23:45:50.454Z,100975
2017-07-28T23:48:18.716Z,100975
2017-07-28T23:50:46.888Z,100970
2017-07-28T23:53:15.067Z,100970
2017-07-28T23:55:43.242Z,100969
2017-07-28T23:58:11.401Z,100964
